createdAt,value
2023-10-18T00:01:00.625Z,11.70
2023-10-18T00:03:30.886Z,11.72
2023-10-18T00:06:01.188Z,11.73
2023-10-18T00:08:29.668Z,11.75
2023-10-18T00:11:02.330Z,11.72
2023-10-18T00:13:32.186Z,11.76
2023-10-18T00:16:06.497Z,11.75
2023-10-18T00:18:35.098Z,11.75
2023-10-18T00:21:04.393Z,11.81
2023-10-18T00:23:33.633Z,11.81
2023-10-18T00:26:06.404Z,11.77
2023-10-18T00:28:35.489Z,11.75
2023-10-18T00:31:18.379Z,11.75
2023-10-18T00:33:46.797Z,11.72
2023-10-18T00:36:18.089Z,11.73
2023-10-18T00:38:46.671Z,11.75
2023-10-18T00:41:17.592Z,11.81
2023-10-18T00:43:47.200Z,11.79
2023-10-18T00:46:17.169Z,11.84
2023-10-18T00:48:47.220Z,11.82
2023-10-18T00:51:18.201Z,11.85
2023-10-18T00:53:48.908Z,11.88
2023-10-18T00:56:17.989Z,11.88
2023-10-18T00:58:47.970Z,11.94
2023-10-18T01:01:19.785Z,11.97
2023-10-18T01:03:53.192Z,12.05
2023-10-18T01:06:25.871Z,12.03
2023-10-18T01:08:54.337Z,12.01
2023-10-18T01:11:28.876Z,12.02
2023-10-18T01:13:58.563Z,12.06
2023-10-18T01:16:32.087Z,12.07
2023-10-18T01:19:00.508Z,12.05
2023-10-18T01:21:29.344Z,12.08
2023-10-18T01:24:01.376Z,12.07
2023-10-18T01:26:33.387Z,12.15
2023-10-18T01:29:09.844Z,12.14
2023-10-18T01:31:42.867Z,12.18
2023-10-18T01:34:12.148Z,12.22
2023-10-18T01:36:43.558Z,12.23
2023-10-18T01:39:27.277Z,12.20
2023-10-18T01:41:57.234Z,12.24
2023-10-18T01:44:32.412Z,12.26
2023-10-18T01:47:07.359Z,12.26
2023-10-18T01:49:39.643Z,12.26
2023-10-18T01:52:09.702Z,12.26
2023-10-18T01:54:39.766Z,12.30
2023-10-18T01:57:09.428Z,12.32
2023-10-18T01:59:38.155Z,12.31
2023-10-18T02:02:11.256Z,12.34
2023-10-18T02:04:52.773Z,12.32
2023-10-18T02:07:23.638Z,12.35
2023-10-18T02:09:54.413Z,12.38
2023-10-18T02:12:24.452Z,12.41
2023-10-18T02:14:53.180Z,12.42
2023-10-18T02:17:21.626Z,12.46
2023-10-18T02:19:50.351Z,12.43
2023-10-18T02:22:20.418Z,12.41
2023-10-18T02:24:51.684Z,12.43
2023-10-18T02:27:21.431Z,12.45
2023-10-18T02:29:53.343Z,12.49
2023-10-18T02:32:25.470Z,12.52
2023-10-18T02:34:54.095Z,12.52
2023-10-18T02:37:25.977Z,12.56
2023-10-18T02:40:08.870Z,12.57
2023-10-18T02:42:37.753Z,12.57
2023-10-18T02:45:14.632Z,12.57
2023-10-18T02:47:43.493Z,12.57
2023-10-18T02:50:16.067Z,12.58
2023-10-18T02:52:44.748Z,12.59
2023-10-18T02:55:12.938Z,12.59
2023-10-18T02:57:43.558Z,12.60
2023-10-18T03:00:15.741Z,12.61
2023-10-18T03:02:43.995Z,12.62
2023-10-18T03:05:12.515Z,12.61
2023-10-18T03:07:42.739Z,12.59
2023-10-18T03:10:20.041Z,12.60
2023-10-18T03:12:48.157Z,12.63
2023-10-18T03:15:19.509Z,12.63
2023-10-18T03:17:50.525Z,12.61
2023-10-18T03:20:22.648Z,12.62
2023-10-18T03:22:51.732Z,12.62
2023-10-18T03:25:27.916Z,12.61
2023-10-18T03:28:00.356Z,12.59
2023-10-18T03:30:46.768Z,12.61
2023-10-18T03:33:15.668Z,12.61
2023-10-18T03:35:45.029Z,12.62
2023-10-18T03:38:18.432Z,12.62
2023-10-18T03:40:49.700Z,12.61
2023-10-18T03:43:23.636Z,12.63
2023-10-18T03:46:14.886Z,12.69
2023-10-18T03:48:46.521Z,12.66
2023-10-18T03:51:21.743Z,12.65
2023-10-18T03:53:54.063Z,12.69
2023-10-18T03:56:23.370Z,12.71
2023-10-18T03:59:02.269Z,12.68
2023-10-18T04:01:41.377Z,12.70
2023-10-18T04:04:19.091Z,12.73
2023-10-18T04:06:51.443Z,12.75
2023-10-18T04:09:20.287Z,12.75
2023-10-18T04:11:49.055Z,12.72
2023-10-18T04:14:17.980Z,12.73
2023-10-18T04:16:55.560Z,12.75
2023-10-18T04:19:23.901Z,12.76
2023-10-18T04:21:55.677Z,12.79
2023-10-18T04:24:24.826Z,12.82
2023-10-18T04:26:54.458Z,12.83
2023-10-18T04:29:28.119Z,12.85
2023-10-18T04:31:58.312Z,12.84
2023-10-18T04:34:30.956Z,12.81
2023-10-18T04:37:01.296Z,12.80
2023-10-18T04:39:30.995Z,12.83
2023-10-18T04:41:59.962Z,12.85
2023-10-18T04:44:28.635Z,12.86
2023-10-18T04:47:01.216Z,12.85
2023-10-18T04:49:38.237Z,12.84
2023-10-18T04:52:08.411Z,12.83
2023-10-18T04:54:39.654Z,12.86
2023-10-18T04:57:11.977Z,12.86
2023-10-18T04:59:48.828Z,12.88
2023-10-18T05:02:28.003Z,12.87
2023-10-18T05:04:56.567Z,12.88
2023-10-18T05:07:39.975Z,12.85
2023-10-18T05:10:15.512Z,12.86
2023-10-18T05:12:49.097Z,12.89
2023-10-18T05:15:23.204Z,12.90
2023-10-18T05:17:56.020Z,12.90
2023-10-18T05:20:43.068Z,12.85
2023-10-18T05:23:12.219Z,12.83
2023-10-18T05:25:46.837Z,12.81
2023-10-18T05:28:18.612Z,12.82
2023-10-18T05:31:04.267Z,12.82
2023-10-18T05:33:53.859Z,12.85
2023-10-18T05:36:56.156Z,12.83
2023-10-18T05:39:50.125Z,12.80
2023-10-18T05:42:21.865Z,12.84
2023-10-18T05:44:50.444Z,12.82
2023-10-18T05:47:18.573Z,12.83
2023-10-18T05:49:51.806Z,12.83
2023-10-18T05:52:31.247Z,12.87
2023-10-18T05:54:59.491Z,12.88
2023-10-18T05:57:27.641Z,12.83
2023-10-18T05:59:55.851Z,12.88
2023-10-18T06:02:27.179Z,12.88
2023-10-18T06:04:57.662Z,12.89
2023-10-18T06:07:26.083Z,12.92
2023-10-18T06:10:12.000Z,12.92
2023-10-18T06:12:41.897Z,12.95
2023-10-18T06:15:15.773Z,12.94
2023-10-18T06:17:49.447Z,12.93
2023-10-18T06:20:28.665Z,12.98
2023-10-18T06:23:10.215Z,12.99
2023-10-18T06:25:39.672Z,12.99
2023-10-18T06:28:09.372Z,13.03
2023-10-18T06:30:41.797Z,13.04
2023-10-18T06:33:14.164Z,13.07
2023-10-18T06:35:52.368Z,13.06
2023-10-18T06:38:23.617Z,13.09
2023-10-18T06:41:06.922Z,13.10
2023-10-18T06:43:37.702Z,13.11
2023-10-18T06:46:09.949Z,13.14
2023-10-18T06:48:39.328Z,13.14
2023-10-18T06:51:18.668Z,13.13
2023-10-18T06:53:51.830Z,13.11
2023-10-18T06:56:22.111Z,13.14
2023-10-18T06:58:50.321Z,13.12
2023-10-18T07:01:22.256Z,13.07
2023-10-18T07:03:51.107Z,13.11
2023-10-18T07:06:25.584Z,13.10
2023-10-18T07:08:54.226Z,13.12
2023-10-18T07:11:37.807Z,13.16
2023-10-18T07:14:14.224Z,13.17
2023-10-18T07:16:43.818Z,13.17
2023-10-18T07:19:27.950Z,13.19
2023-10-18T07:21:58.429Z,13.20
2023-10-18T07:24:34.084Z,13.21
2023-10-18T07:27:05.246Z,13.22
2023-10-18T07:29:37.787Z,13.22
2023-10-18T07:32:14.484Z,13.25
2023-10-18T07:34:44.202Z,13.24
2023-10-18T07:37:21.052Z,13.25
2023-10-18T07:39:58.037Z,13.25
2023-10-18T07:42:28.028Z,13.26
2023-10-18T07:44:57.015Z,13.28
2023-10-18T07:47:32.676Z,13.30
2023-10-18T07:50:01.464Z,13.33
2023-10-18T07:52:31.020Z,13.30
2023-10-18T07:54:59.219Z,13.32
2023-10-18T07:57:35.156Z,13.35
2023-10-18T08:00:17.937Z,13.34
2023-10-18T08:02:46.188Z,13.34
2023-10-18T08:05:19.415Z,13.32
2023-10-18T08:07:53.864Z,13.35
2023-10-18T08:10:23.137Z,13.37
2023-10-18T08:13:05.459Z,13.37
2023-10-18T08:15:37.093Z,13.38
2023-10-18T08:18:16.412Z,13.39
2023-10-18T08:21:01.109Z,13.38
2023-10-18T08:23:40.450Z,13.38
2023-10-18T08:26:08.865Z,13.37
2023-10-18T08:28:42.830Z,13.36
2023-10-18T08:31:18.541Z,13.41
2023-10-18T08:33:49.690Z,13.43
2023-10-18T08:36:19.901Z,13.47
2023-10-18T08:38:49.483Z,13.46
2023-10-18T08:41:18.962Z,13.49
2023-10-18T08:44:00.983Z,13.49
2023-10-18T08:46:29.367Z,13.51
2023-10-18T08:48:58.887Z,13.52
2023-10-18T08:51:31.242Z,13.52
2023-10-18T08:54:04.192Z,13.56
2023-10-18T08:56:34.604Z,13.57
2023-10-18T08:59:12.577Z,13.55
2023-10-18T09:02:01.571Z,13.54
2023-10-18T09:04:33.016Z,13.53
2023-10-18T09:07:19.212Z,13.54
2023-10-18T09:09:57.454Z,13.54
2023-10-18T09:12:53.848Z,13.54
2023-10-18T09:15:48.717Z,13.58
2023-10-18T09:18:26.095Z,13.61
2023-10-18T09:20:56.412Z,13.63
2023-10-18T09:23:30.004Z,13.63
2023-10-18T09:26:07.641Z,13.65
2023-10-18T09:28:37.022Z,13.70
2023-10-18T09:31:12.376Z,13.72
2023-10-18T09:33:50.465Z,13.72
2023-10-18T09:36:25.215Z,13.73
2023-10-18T09:38:54.957Z,13.71
2023-10-18T09:41:28.312Z,13.74
2023-10-18T09:44:02.633Z,13.73
2023-10-18T09:46:31.335Z,13.75
2023-10-18T09:49:00.471Z,13.74
2023-10-18T09:51:29.205Z,13.75
2023-10-18T09:53:57.816Z,13.75
2023-10-18T09:56:34.637Z,13.74
2023-10-18T09:59:07.315Z,13.76
2023-10-18T10:01:49.688Z,13.78
2023-10-18T10:04:20.244Z,13.79
2023-10-18T10:06:48.860Z,13.80
2023-10-18T10:09:18.808Z,13.80
2023-10-18T10:11:49.821Z,13.82
2023-10-18T10:14:18.746Z,13.82
2023-10-18T10:16:54.027Z,13.83
2023-10-18T10:19:26.907Z,13.83
2023-10-18T10:21:57.077Z,13.84
2023-10-18T10:24:34.152Z,13.85
2023-10-18T10:27:40.969Z,13.86
2023-10-18T10:30:21.665Z,13.86
2023-10-18T10:32:50.827Z,13.87
2023-10-18T10:35:21.734Z,13.86
2023-10-18T10:37:51.350Z,13.88
2023-10-18T10:43:21.204Z,13.89
2023-10-18T10:45:56.724Z,13.89
2023-10-18T10:48:38.674Z,13.89
2023-10-18T10:51:21.657Z,13.91
2023-10-18T10:53:55.499Z,13.89
2023-10-18T10:56:44.714Z,13.90
2023-10-18T10:59:18.899Z,13.91
2023-10-18T11:02:17.676Z,13.95
2023-10-18T11:04:51.483Z,13.93
2023-10-18T11:07:24.311Z,13.94
2023-10-18T11:10:01.206Z,13.96
2023-10-18T11:12:30.837Z,13.96
2023-10-18T11:15:05.717Z,13.98
2023-10-18T11:17:36.545Z,13.99
2023-10-18T11:20:19.334Z,14.00
2023-10-18T11:22:49.023Z,13.98
2023-10-18T11:25:21.286Z,13.99
2023-10-18T11:27:49.497Z,14.01
2023-10-18T11:30:24.167Z,14.01
2023-10-18T11:32:55.723Z,14.02
2023-10-18T11:35:40.183Z,14.05
2023-10-18T11:38:11.192Z,14.11
2023-10-18T11:40:42.312Z,14.10
2023-10-18T11:43:10.626Z,14.11
2023-10-18T11:45:41.333Z,14.12
2023-10-18T11:48:11.427Z,14.13
2023-10-18T11:50:43.265Z,14.12
2023-10-18T11:53:13.734Z,14.14
2023-10-18T11:55:58.150Z,14.13
2023-10-18T11:58:27.444Z,14.11
2023-10-18T12:01:02.510Z,14.10
2023-10-18T12:03:31.019Z,14.09
2023-10-18T12:06:00.686Z,14.09
2023-10-18T12:08:31.917Z,14.07
2023-10-18T12:11:00.353Z,14.09
2023-10-18T12:13:28.551Z,14.07
2023-10-18T12:16:01.999Z,14.05
2023-10-18T12:18:30.433Z,14.03
2023-10-18T12:20:58.632Z,14.02
2023-10-18T12:23:26.827Z,14.02
2023-10-18T12:25:54.985Z,14.00
2023-10-18T12:28:29.531Z,14.01
2023-10-18T12:31:02.317Z,14.00
2023-10-18T12:33:34.670Z,13.98
2023-10-18T12:36:02.867Z,13.98
2023-10-18T12:38:34.261Z,13.96
2023-10-18T12:41:07.430Z,13.93
2023-10-18T12:43:39.574Z,13.93
2023-10-18T12:46:09.477Z,13.92
2023-10-18T12:48:38.305Z,13.90
2023-10-18T12:51:13.813Z,13.89
2023-10-18T12:53:47.840Z,13.88
2023-10-18T12:56:37.874Z,13.88
2023-10-18T12:59:21.035Z,13.93
2023-10-18T13:01:50.237Z,13.98
2023-10-18T13:04:23.412Z,14.00
2023-10-18T13:06:50.615Z,13.99
2023-10-18T13:09:21.310Z,14.00
2023-10-18T13:12:05.230Z,14.02
2023-10-18T13:14:34.919Z,14.05
2023-10-18T13:17:07.098Z,14.04
2023-10-18T13:19:35.310Z,14.03
2023-10-18T13:22:05.782Z,14.05
2023-10-18T13:24:34.036Z,14.07
2023-10-18T13:27:02.463Z,14.07
2023-10-18T13:29:33.815Z,14.06
2023-10-18T13:32:08.239Z,14.06
2023-10-18T13:34:41.086Z,14.05
2023-10-18T13:37:14.295Z,14.05
2023-10-18T13:39:49.440Z,14.06
2023-10-18T13:42:20.480Z,14.06
2023-10-18T13:44:49.834Z,14.07
2023-10-18T13:47:20.189Z,14.10
2023-10-18T13:49:50.304Z,14.10
2023-10-18T13:52:18.767Z,14.09
2023-10-18T13:54:47.664Z,14.09
2023-10-18T13:57:18.512Z,14.11
2023-10-18T13:59:46.940Z,14.09
2023-10-18T14:02:19.326Z,14.11
2023-10-18T14:04:47.914Z,14.11
2023-10-18T14:07:17.504Z,14.12
2023-10-18T14:09:46.013Z,14.15
2023-10-18T14:12:14.272Z,14.15
2023-10-18T14:14:42.507Z,14.18
2023-10-18T14:17:15.169Z,14.18
2023-10-18T14:19:44.865Z,14.17
2023-10-18T14:22:13.355Z,14.17
2023-10-18T14:24:42.803Z,14.18
2023-10-18T14:27:11.177Z,14.19
2023-10-18T14:29:39.548Z,14.19
2023-10-18T14:32:10.263Z,14.18
2023-10-18T14:34:40.360Z,14.17
2023-10-18T14:37:08.596Z,14.17
2023-10-18T14:39:39.814Z,14.14
2023-10-18T14:42:09.930Z,14.16
2023-10-18T14:44:38.813Z,14.14
2023-10-18T14:47:08.612Z,14.13
2023-10-18T14:49:40.274Z,14.14
2023-10-18T14:52:12.665Z,14.13
2023-10-18T14:54:42.462Z,14.12
2023-10-18T14:57:12.977Z,14.12
2023-10-18T14:59:41.290Z,14.10
2023-10-18T15:02:10.948Z,14.09
2023-10-18T15:04:39.146Z,14.08
2023-10-18T15:07:07.353Z,14.07
2023-10-18T15:09:35.614Z,14.06
2023-10-18T15:12:03.917Z,14.04
2023-10-18T15:14:34.388Z,14.04
2023-10-18T15:17:03.775Z,14.04
2023-10-18T15:19:32.149Z,14.05
2023-10-18T15:22:01.161Z,14.04
2023-10-18T15:24:29.617Z,14.04
2023-10-18T15:26:57.871Z,14.00
2023-10-18T15:29:26.146Z,13.99
2023-10-18T15:31:55.767Z,13.97
2023-10-18T15:34:24.005Z,13.95
2023-10-18T15:36:52.227Z,13.93
2023-10-18T15:39:20.712Z,13.92
2023-10-18T15:41:50.395Z,13.90
2023-10-18T15:44:18.593Z,13.84
2023-10-18T15:46:49.104Z,13.84
2023-10-18T15:49:19.293Z,13.81
2023-10-18T15:51:52.153Z,13.78
2023-10-18T15:54:20.342Z,13.78
2023-10-18T15:56:48.518Z,13.74
2023-10-18T15:59:18.825Z,13.74
2023-10-18T16:01:58.587Z,13.72
2023-10-18T16:04:29.598Z,13.71
2023-10-18T16:06:58.142Z,13.70
2023-10-18T16:09:29.269Z,13.68
2023-10-18T16:11:59.839Z,13.69
2023-10-18T16:14:30.507Z,13.67
2023-10-18T16:17:05.264Z,13.66
2023-10-18T16:19:36.469Z,13.63
2023-10-18T16:22:04.796Z,13.65
2023-10-18T16:24:33.135Z,13.64
2023-10-18T16:27:01.568Z,13.59
2023-10-18T16:29:29.835Z,13.65
2023-10-18T16:32:00.293Z,13.66
2023-10-18T16:34:28.806Z,13.67
2023-10-18T16:36:58.869Z,13.66
2023-10-18T16:39:28.465Z,13.68
2023-10-18T16:41:56.600Z,13.69
2023-10-18T16:44:24.885Z,13.69
2023-10-18T16:46:53.067Z,13.70
2023-10-18T16:49:21.186Z,13.68
2023-10-18T16:51:49.820Z,13.70
2023-10-18T16:54:19.283Z,13.70
2023-10-18T16:56:48.378Z,13.72
2023-10-18T16:59:16.721Z,13.72
2023-10-18T17:01:45.641Z,13.71
2023-10-18T17:04:13.897Z,13.73
2023-10-18T17:06:42.192Z,13.73
2023-10-18T17:09:18.177Z,13.72
2023-10-18T17:11:48.054Z,13.73
2023-10-18T17:14:18.265Z,13.73
2023-10-18T17:16:46.760Z,13.71
2023-10-18T17:19:16.136Z,13.72
2023-10-18T17:21:44.789Z,13.70
2023-10-18T17:24:13.043Z,13.69
2023-10-18T17:26:41.434Z,13.70
2023-10-18T17:29:11.805Z,13.70
2023-10-18T17:31:39.926Z,13.71
2023-10-18T17:34:12.969Z,13.70
2023-10-18T17:36:42.578Z,13.69
2023-10-18T17:39:12.451Z,13.72
2023-10-18T17:41:40.730Z,13.71
2023-10-18T17:44:10.549Z,13.71
2023-10-18T17:46:38.866Z,13.70
2023-10-18T17:49:06.965Z,13.68
2023-10-18T17:51:37.008Z,13.67
2023-10-18T17:54:05.650Z,13.67
2023-10-18T17:56:33.896Z,13.69
2023-10-18T17:59:06.360Z,13.70
2023-10-18T18:01:35.910Z,13.66
2023-10-18T18:04:04.383Z,13.68
2023-10-18T18:06:32.704Z,13.68
2023-10-18T18:09:01.776Z,13.70
2023-10-18T18:11:31.662Z,13.71
2023-10-18T18:14:00.132Z,13.69
2023-10-18T18:16:28.387Z,13.71
2023-10-18T18:18:59.284Z,13.71
2023-10-18T18:21:28.820Z,13.70
2023-10-18T18:23:57.262Z,13.69
2023-10-18T18:26:28.317Z,13.71
2023-10-18T18:28:59.225Z,13.72
2023-10-18T18:31:27.729Z,13.70
2023-10-18T18:33:57.236Z,13.71
2023-10-18T18:36:25.399Z,13.70
2023-10-18T18:38:54.772Z,13.71
2023-10-18T18:41:23.189Z,13.68
2023-10-18T18:43:51.478Z,13.69
2023-10-18T18:48:50.627Z,13.69
2023-10-18T18:51:20.253Z,13.71
2023-10-18T18:53:48.364Z,13.70
2023-10-18T18:56:16.442Z,13.73
2023-10-18T18:58:44.651Z,13.74
2023-10-18T19:01:12.927Z,13.74
2023-10-18T19:03:41.233Z,13.73
2023-10-18T19:06:09.570Z,13.75
2023-10-18T19:08:39.158Z,13.75
2023-10-18T19:11:07.631Z,13.75
2023-10-18T19:13:35.908Z,13.73
2023-10-18T19:16:07.071Z,13.73
2023-10-18T19:18:36.608Z,13.74
2023-10-18T19:21:10.636Z,13.73
2023-10-18T19:23:41.799Z,13.74
2023-10-18T19:26:11.599Z,13.73
2023-10-18T19:28:40.233Z,13.73
2023-10-18T19:31:11.315Z,13.75
2023-10-18T19:33:39.693Z,13.76
2023-10-18T19:36:12.677Z,13.76
2023-10-18T19:38:43.232Z,13.77
2023-10-18T19:41:11.568Z,13.76
2023-10-18T19:43:39.857Z,13.74
2023-10-18T19:46:08.098Z,13.79
2023-10-18T19:48:36.336Z,13.81
2023-10-18T19:51:05.427Z,13.82
2023-10-18T19:53:35.338Z,13.81
2023-10-18T19:56:07.944Z,13.81
2023-10-18T19:58:36.212Z,13.79
2023-10-18T20:01:05.142Z,13.80
2023-10-18T20:03:33.634Z,13.79
2023-10-18T20:06:02.927Z,13.78
2023-10-18T20:08:31.402Z,13.79
2023-10-18T20:10:59.706Z,13.78
2023-10-18T20:13:32.302Z,13.78
2023-10-18T20:16:00.661Z,13.76
2023-10-18T20:18:31.789Z,13.80
2023-10-18T20:21:00.907Z,13.78
2023-10-18T20:23:29.330Z,13.80
2023-10-18T20:26:01.681Z,13.77
2023-10-18T20:28:32.038Z,13.77
2023-10-18T20:31:01.928Z,13.77
2023-10-18T20:33:30.861Z,13.79
2023-10-18T20:35:59.266Z,13.80
2023-10-18T20:38:27.807Z,13.77
2023-10-18T20:40:56.966Z,13.76
2023-10-18T20:43:27.713Z,13.75
2023-10-18T20:46:04.941Z,13.78
2023-10-18T20:48:36.132Z,13.78
2023-10-18T20:51:07.961Z,13.78
2023-10-18T20:53:36.575Z,13.76
2023-10-18T20:56:06.866Z,13.76
2023-10-18T20:58:35.123Z,13.77
2023-10-18T21:01:13.506Z,13.75
2023-10-18T21:03:45.012Z,13.76
2023-10-18T21:06:19.385Z,13.76
2023-10-18T21:08:49.547Z,13.78
2023-10-18T21:11:18.440Z,13.76
2023-10-18T21:13:47.624Z,13.79
2023-10-18T21:16:17.359Z,13.77
2023-10-18T21:18:46.231Z,13.75
2023-10-18T21:21:15.848Z,13.75
2023-10-18T21:23:45.922Z,13.76
2023-10-18T21:26:15.630Z,13.77
2023-10-18T21:28:46.297Z,13.78
2023-10-18T21:31:18.144Z,13.78
2023-10-18T21:33:46.699Z,13.78
2023-10-18T21:36:17.059Z,13.79
2023-10-18T21:38:46.255Z,13.82
2023-10-18T21:41:15.770Z,13.83
2023-10-18T21:43:44.239Z,13.80
2023-10-18T21:46:12.719Z,13.80
2023-10-18T21:48:42.780Z,13.80
2023-10-18T21:51:13.566Z,13.81
2023-10-18T21:53:42.938Z,13.80
2023-10-18T21:56:15.723Z,13.81
2023-10-18T21:58:47.890Z,13.78
2023-10-18T22:01:30.595Z,13.76
2023-10-18T22:04:01.176Z,13.79
2023-10-18T22:06:29.874Z,13.81
2023-10-18T22:09:06.630Z,13.75
2023-10-18T22:11:36.757Z,13.76
2023-10-18T22:14:19.287Z,13.77
2023-10-18T22:16:56.265Z,13.80
2023-10-18T22:19:31.928Z,13.80
2023-10-18T22:22:12.840Z,13.81
2023-10-18T22:24:42.046Z,13.78
2023-10-18T22:27:16.402Z,13.82
2023-10-18T22:29:48.897Z,13.82
2023-10-18T22:32:19.809Z,13.84
2023-10-18T22:34:52.780Z,13.87
2023-10-18T22:37:23.007Z,13.90
2023-10-18T22:39:53.614Z,13.88
2023-10-18T22:42:24.881Z,13.90
2023-10-18T22:45:10.590Z,13.90
2023-10-18T22:47:45.180Z,13.89
2023-10-18T22:50:22.689Z,13.87
2023-10-18T22:52:55.513Z,13.89
2023-10-18T22:55:27.659Z,13.85
2023-10-18T22:57:57.420Z,13.88
2023-10-18T23:00:35.313Z,13.88
2023-10-18T23:03:10.903Z,13.87
2023-10-18T23:05:41.744Z,13.85
2023-10-18T23:08:22.241Z,13.84
2023-10-18T23:10:50.992Z,13.79
2023-10-18T23:13:37.563Z,13.82
2023-10-18T23:16:11.844Z,13.82
2023-10-18T23:18:55.366Z,13.81
2023-10-18T23:21:30.292Z,13.78
2023-10-18T23:24:24.220Z,13.74
2023-10-18T23:27:09.979Z,13.68
2023-10-18T23:29:41.189Z,13.75
2023-10-18T23:32:13.260Z,13.75
2023-10-18T23:34:51.511Z,13.78
2023-10-18T23:37:47.127Z,13.79
2023-10-18T23:40:26.202Z,13.74
2023-10-18T23:42:55.425Z,13.74
2023-10-18T23:45:26.229Z,13.78
2023-10-18T23:48:12.395Z,13.80
2023-10-18T23:50:52.059Z,13.80
2023-10-18T23:53:23.855Z,13.79
2023-10-18T23:55:55.225Z,13.77
2023-10-18T23:58:30.646Z,13.74
